Terminal Aerodrome Forecast
Issued by NWS El Paso, TX

Home | Current Version | Previous Version | Text Only | Print | Product List | Glossary On
Versions: 1 2 3 4 5 6 7 8 9 10 11 12
591
FTUS44 KEPZ 152320
TAFELP
TAF
KELP 152320Z 1600/1624 VRB04KT P6SM SKC
     FM161800 21007KT P6SM SKC=

USA.gov is the U.S. government's official web portal to all federal, state and local government web resources and services.